createdAt,value
2023-04-05T00:00:11.304Z,9.00
2023-04-05T00:01:12.360Z,8.10
2023-04-05T00:02:12.026Z,9.70
2023-04-05T00:03:11.989Z,8.90
2023-04-05T00:04:11.242Z,9.60
2023-04-05T00:05:11.134Z,10.60
2023-04-05T00:06:11.866Z,8.20
2023-04-05T00:07:11.043Z,9.10
2023-04-05T00:08:11.205Z,7.80
2023-04-05T00:09:11.865Z,8.40
2023-04-05T00:10:11.009Z,8.40
2023-04-05T00:11:11.021Z,8.50
2023-04-05T00:12:11.039Z,9.20
2023-04-05T00:13:11.449Z,8.40
2023-04-05T00:14:10.954Z,7.40
2023-04-05T00:15:10.948Z,7.50
2023-04-05T00:16:11.969Z,6.60
2023-04-05T00:17:12.515Z,10.50
2023-04-05T00:18:10.902Z,9.60
2023-04-05T00:19:11.672Z,9.40
2023-04-05T00:20:10.898Z,8.00
2023-04-05T00:21:10.879Z,6.90
2023-04-05T00:22:11.605Z,10.30
2023-04-05T00:23:10.838Z,7.60
2023-04-05T00:24:10.846Z,7.20
2023-04-05T00:25:11.609Z,7.90
2023-04-05T00:26:10.828Z,8.80
2023-04-05T00:27:10.805Z,7.80
2023-04-05T00:28:11.545Z,7.20
2023-04-05T00:29:10.826Z,9.20
2023-04-05T00:30:10.854Z,6.70
2023-04-05T00:31:10.766Z,8.60
2023-04-05T00:32:10.937Z,8.60
2023-04-05T00:33:10.795Z,9.90
2023-04-05T00:34:10.746Z,8.90
2023-04-05T00:35:10.711Z,8.90
2023-04-05T00:36:11.657Z,9.10
2023-04-05T00:37:10.815Z,10.80
2023-04-05T00:38:11.609Z,8.00
2023-04-05T00:39:10.638Z,9.70
2023-04-05T00:40:10.776Z,8.10
2023-04-05T00:41:10.643Z,8.50
2023-04-05T00:42:11.519Z,8.10
2023-04-05T00:43:11.388Z,10.10
2023-04-05T00:44:10.545Z,8.80
2023-04-05T00:45:11.446Z,8.40
2023-04-05T00:46:11.460Z,12.20
2023-04-05T00:47:10.549Z,9.50
2023-04-05T00:48:10.553Z,11.30
2023-04-05T00:49:10.503Z,9.20
2023-04-05T00:50:11.479Z,7.90
2023-04-05T00:51:10.477Z,9.10
2023-04-05T00:52:10.494Z,11.10
2023-04-05T00:53:11.228Z,8.50
2023-04-05T00:54:11.348Z,10.90
2023-04-05T00:55:11.268Z,7.70
2023-04-05T00:56:11.163Z,8.30
2023-04-05T00:57:11.365Z,10.30
2023-04-05T00:58:10.399Z,10.00
2023-04-05T00:59:10.391Z,8.80
2023-04-05T01:00:10.647Z,8.50
2023-04-05T01:01:10.687Z,9.00
2023-04-05T01:02:10.308Z,11.20
2023-04-05T01:03:10.472Z,10.70
2023-04-05T01:04:10.365Z,7.80
2023-04-05T01:05:11.061Z,7.80
2023-04-05T01:06:10.294Z,12.10
2023-04-05T01:07:10.338Z,9.40
2023-04-05T01:08:10.351Z,9.30
2023-04-05T01:09:10.373Z,8.40
2023-04-05T01:10:10.292Z,8.20
2023-04-05T01:11:10.271Z,8.30
2023-04-05T01:12:10.571Z,9.40
2023-04-05T01:13:10.148Z,10.40
2023-04-05T01:14:10.138Z,8.70
2023-04-05T01:15:10.597Z,8.80
2023-04-05T01:16:10.795Z,9.00
2023-04-05T01:17:10.083Z,7.30
2023-04-05T01:18:10.150Z,9.40
2023-04-05T01:19:10.635Z,6.90
2023-04-05T01:20:10.131Z,9.00
2023-04-05T01:21:10.151Z,8.30
2023-04-05T01:22:10.967Z,7.50
2023-04-05T01:23:10.028Z,9.30
2023-04-05T01:24:10.565Z,8.70
2023-04-05T01:25:11.020Z,8.40
2023-04-05T01:26:09.979Z,7.90
2023-04-05T01:27:10.018Z,10.10
2023-04-05T01:28:10.004Z,9.40
2023-04-05T01:29:10.849Z,7.60
2023-04-05T01:30:09.975Z,7.90
2023-04-05T01:31:09.995Z,7.40
2023-04-05T01:32:10.769Z,9.50
2023-04-05T01:33:10.620Z,10.20
2023-04-05T01:34:09.970Z,10.40
2023-04-05T01:35:09.908Z,9.30
2023-04-05T01:36:09.893Z,8.80
2023-04-05T01:37:09.816Z,8.40
2023-04-05T01:38:09.847Z,9.10
2023-04-05T01:39:09.857Z,9.10
2023-04-05T01:40:10.047Z,8.30
2023-04-05T01:41:09.904Z,8.90
2023-04-05T01:42:09.804Z,7.70
2023-04-05T01:43:09.787Z,8.70
2023-04-05T01:44:09.735Z,8.00
2023-04-05T01:45:09.879Z,9.00
2023-04-05T01:46:09.988Z,7.60
2023-04-05T01:47:09.704Z,7.70
2023-04-05T01:48:10.513Z,8.20
2023-04-05T01:49:09.675Z,9.30
2023-04-05T01:50:09.929Z,8.80
2023-04-05T01:51:09.886Z,8.50
2023-04-05T01:52:09.675Z,10.90
2023-04-05T01:53:10.557Z,10.30
2023-04-05T01:54:09.899Z,10.00
2023-04-05T01:55:09.580Z,7.50
2023-04-05T01:56:09.617Z,13.20
2023-04-05T01:57:09.904Z,9.20
2023-04-05T01:58:09.536Z,12.00
2023-04-05T01:59:09.590Z,9.50
2023-04-05T02:00:09.508Z,9.00
2023-04-05T02:01:09.547Z,7.90
2023-04-05T02:02:09.586Z,6.80
2023-04-05T02:03:09.563Z,7.40
2023-04-05T02:04:09.456Z,8.00
2023-04-05T02:06:21.705Z,7.90
2023-04-05T02:07:21.725Z,7.50
2023-04-05T02:08:21.405Z,7.50
2023-04-05T02:09:21.670Z,8.10
2023-04-05T02:10:21.463Z,5.70
2023-04-05T02:11:20.619Z,7.10
2023-04-05T02:12:20.593Z,7.10
2023-04-05T02:13:20.574Z,8.90
2023-04-05T02:14:21.337Z,7.60
2023-04-05T02:15:21.505Z,8.90
2023-04-05T02:16:20.596Z,8.50
2023-04-05T02:17:21.374Z,6.40
2023-04-05T02:18:21.508Z,11.40
2023-04-05T02:19:20.536Z,8.70
2023-04-05T02:20:20.495Z,8.30
2023-04-05T02:21:21.440Z,11.40
2023-04-05T02:22:20.890Z,7.40
2023-04-05T02:23:20.548Z,7.10
2023-04-05T02:24:20.472Z,7.50
2023-04-05T02:25:21.337Z,6.50
2023-04-05T02:26:21.252Z,7.10
2023-04-05T02:27:20.421Z,7.60
2023-04-05T02:28:21.286Z,9.50
2023-04-05T02:29:20.371Z,8.30
2023-04-05T02:30:21.412Z,9.20
2023-04-05T02:31:20.371Z,7.20
2023-04-05T02:32:20.353Z,7.70
2023-04-05T02:33:20.307Z,10.60
2023-04-05T02:34:21.205Z,8.90
2023-04-05T02:35:21.140Z,8.40
2023-04-05T02:36:21.042Z,9.80
2023-04-05T02:37:21.183Z,9.10
2023-04-05T02:38:20.259Z,9.80
2023-04-05T02:39:20.983Z,9.60
2023-04-05T02:40:21.184Z,10.80
2023-04-05T02:41:20.378Z,9.20
2023-04-05T02:42:20.997Z,10.30
2023-04-05T02:43:21.110Z,11.90
2023-04-05T02:44:20.181Z,10.80
2023-04-05T02:45:20.991Z,8.70
2023-04-05T02:46:20.267Z,9.20
2023-04-05T02:47:20.160Z,11.10
2023-04-05T02:48:20.200Z,9.20
2023-04-05T02:49:20.123Z,12.70
2023-04-05T02:50:20.100Z,10.00
2023-04-05T02:51:20.343Z,9.60
2023-04-05T02:52:20.091Z,10.40
2023-04-05T02:53:20.212Z,8.30
2023-04-05T02:54:20.046Z,10.00
2023-04-05T02:55:20.197Z,9.50
2023-04-05T02:56:20.030Z,11.10
2023-04-05T02:57:20.794Z,9.40
2023-04-05T02:58:20.471Z,10.20
2023-04-05T02:59:19.993Z,10.20
2023-04-05T03:00:19.957Z,9.20
2023-04-05T03:01:20.004Z,8.80
2023-04-05T03:02:20.245Z,9.90
2023-04-05T03:03:19.964Z,10.80
2023-04-05T03:04:19.976Z,10.30
2023-04-05T03:05:20.715Z,11.00
2023-04-05T03:06:19.890Z,9.50
2023-04-05T03:07:19.880Z,10.40
2023-04-05T03:08:19.920Z,8.90
2023-04-05T03:09:20.012Z,9.30
2023-04-05T03:10:19.836Z,9.40
2023-04-05T03:11:19.895Z,9.20
2023-04-05T03:12:19.941Z,9.70
2023-04-05T03:13:19.794Z,10.70
2023-04-05T03:14:19.884Z,8.70
2023-04-05T03:15:19.766Z,8.40
2023-04-05T03:16:19.795Z,7.80
2023-04-05T03:17:19.899Z,12.90
2023-04-05T03:18:19.728Z,7.60
2023-04-05T03:19:19.744Z,7.80
2023-04-05T03:20:20.629Z,12.80
2023-04-05T03:21:19.814Z,8.30
2023-04-05T03:22:19.762Z,8.80
2023-04-05T03:23:19.686Z,10.10
2023-04-05T03:24:19.648Z,9.40
2023-04-05T03:25:19.687Z,9.00
2023-04-05T03:26:19.662Z,7.60
2023-04-05T03:27:19.706Z,12.30
2023-04-05T03:28:19.620Z,8.30
2023-04-05T03:29:19.570Z,8.40
2023-04-05T03:30:19.565Z,8.50
2023-04-05T03:31:20.692Z,10.30
2023-04-05T03:32:19.511Z,9.40
2023-04-05T03:33:19.512Z,8.50
2023-04-05T03:34:19.557Z,9.70
2023-04-05T03:35:19.530Z,9.00
2023-04-05T03:36:19.469Z,8.90
2023-04-05T03:37:19.500Z,8.40
2023-04-05T03:38:19.452Z,8.20
2023-04-05T03:39:20.351Z,11.60
2023-04-05T03:40:19.537Z,9.60
2023-04-05T03:41:19.445Z,9.30
2023-04-05T03:42:19.448Z,10.30
2023-04-05T03:43:19.365Z,10.20
2023-04-05T03:44:19.485Z,9.00
2023-04-05T03:45:23.349Z,8.80
2023-04-05T03:46:19.410Z,9.20
2023-04-05T03:47:19.357Z,9.90
2023-04-05T03:48:19.323Z,10.10
2023-04-05T03:49:19.326Z,8.20
2023-04-05T03:50:19.286Z,9.70
2023-04-05T03:51:19.324Z,9.30
2023-04-05T03:52:19.298Z,9.20
2023-04-05T03:53:20.027Z,10.80
2023-04-05T03:54:19.310Z,8.40
2023-04-05T03:55:20.119Z,10.20
2023-04-05T03:56:19.203Z,11.40
2023-04-05T03:57:21.427Z,9.30
2023-04-05T03:58:19.169Z,9.10
2023-04-05T03:59:19.177Z,10.90
2023-04-05T04:00:19.624Z,11.90
2023-04-05T04:01:19.587Z,9.80
2023-04-05T04:02:19.159Z,9.90
2023-04-05T04:03:19.662Z,10.30
2023-04-05T04:04:19.110Z,7.90
2023-04-05T04:05:19.168Z,9.20
2023-04-05T04:06:19.776Z,9.90
2023-04-05T04:07:19.611Z,10.20
2023-04-05T04:08:19.134Z,9.70
2023-04-05T04:09:18.994Z,9.80
2023-04-05T04:10:19.044Z,9.50
2023-04-05T04:11:19.650Z,8.50
2023-04-05T04:12:19.662Z,8.00
2023-04-05T04:13:19.010Z,8.90
2023-04-05T04:14:19.018Z,7.00
2023-04-05T04:15:18.946Z,13.00
2023-04-05T04:16:18.969Z,10.60
2023-04-05T04:17:18.862Z,9.30
2023-04-05T04:18:18.964Z,9.70
2023-04-05T04:19:18.848Z,9.90
2023-04-05T04:20:18.882Z,11.80
2023-04-05T04:21:18.829Z,13.70
2023-04-05T04:22:18.854Z,10.50
2023-04-05T04:23:18.861Z,9.80
2023-04-05T04:24:19.037Z,10.50
2023-04-05T04:25:19.007Z,13.50
2023-04-05T04:26:18.882Z,11.40
2023-04-05T04:27:18.948Z,10.60
2023-04-05T04:28:18.955Z,12.90
2023-04-05T04:29:18.764Z,13.50
2023-04-05T04:30:18.856Z,12.30
2023-04-05T04:31:18.985Z,12.60
2023-04-05T04:32:18.883Z,14.50
2023-04-05T04:33:18.922Z,11.30
2023-04-05T04:34:18.830Z,10.20
2023-04-05T04:35:18.807Z,11.00
2023-04-05T04:36:19.164Z,11.80
2023-04-05T04:37:18.770Z,12.20
2023-04-05T04:38:18.872Z,10.60
2023-04-05T04:39:18.722Z,13.30
2023-04-05T04:40:18.792Z,14.50
2023-04-05T04:41:18.633Z,12.90
2023-04-05T04:42:18.533Z,11.70
2023-04-05T04:43:18.569Z,10.20
2023-04-05T04:44:18.747Z,12.50
2023-04-05T04:45:18.553Z,13.90
2023-04-05T04:46:18.774Z,13.00
2023-04-05T04:47:18.527Z,10.80
2023-04-05T04:48:18.581Z,12.80
2023-04-05T04:49:18.512Z,13.90
2023-04-05T04:50:18.549Z,14.50
2023-04-05T04:51:18.653Z,14.10
2023-04-05T04:52:18.453Z,14.40
2023-04-05T04:53:18.529Z,16.80
2023-04-05T04:54:18.397Z,13.50
2023-04-05T04:55:18.559Z,12.70
2023-04-05T04:56:18.447Z,15.80
2023-04-05T04:57:18.363Z,16.70
2023-04-05T04:58:18.424Z,14.70
2023-04-05T04:59:18.489Z,14.80
2023-04-05T05:00:18.974Z,15.40
2023-04-05T05:01:18.333Z,14.60
2023-04-05T05:02:18.482Z,15.00
2023-04-05T05:03:18.380Z,17.30
2023-04-05T05:04:18.367Z,15.70
2023-04-05T05:05:18.273Z,16.90
2023-04-05T05:06:19.161Z,14.60
2023-04-05T05:07:18.293Z,13.50
2023-04-05T05:08:21.161Z,15.70
2023-04-05T05:09:18.190Z,14.90
2023-04-05T05:10:18.277Z,13.00
2023-04-05T05:11:18.212Z,14.70
2023-04-05T05:12:18.146Z,16.30
2023-04-05T05:13:18.175Z,15.80
2023-04-05T05:14:18.163Z,16.20
2023-04-05T05:15:18.138Z,16.20
2023-04-05T05:16:18.169Z,14.30
2023-04-05T05:17:18.632Z,14.20
2023-04-05T05:18:18.723Z,13.80
2023-04-05T05:19:18.168Z,14.00
2023-04-05T05:20:18.039Z,13.60
2023-04-05T05:21:18.059Z,15.20
2023-04-05T05:22:18.044Z,14.70
2023-04-05T05:23:18.036Z,16.10
2023-04-05T05:24:18.008Z,15.30
2023-04-05T05:25:17.961Z,11.50
2023-04-05T05:26:17.999Z,12.70
2023-04-05T05:27:17.994Z,13.20
2023-04-05T05:28:17.954Z,14.90
2023-04-05T05:29:18.750Z,14.70
2023-04-05T05:30:17.911Z,14.50
2023-04-05T05:31:18.176Z,12.70
2023-04-05T05:32:18.711Z,13.20
2023-04-05T05:33:17.865Z,13.70
2023-04-05T05:34:17.864Z,12.80
2023-04-05T05:35:18.706Z,11.70
2023-04-05T05:36:17.854Z,11.50
2023-04-05T05:37:18.741Z,12.60
2023-04-05T05:38:17.868Z,11.00
2023-04-05T05:39:18.567Z,12.80
2023-04-05T05:40:17.842Z,11.60
2023-04-05T05:41:17.804Z,12.00
2023-04-05T05:42:17.844Z,11.70
2023-04-05T05:43:17.847Z,13.30
2023-04-05T05:44:17.749Z,11.20
2023-04-05T05:45:17.735Z,12.30
2023-04-05T05:46:19.407Z,11.70
2023-04-05T05:47:17.720Z,10.80
2023-04-05T05:48:18.157Z,9.10
2023-04-05T05:49:18.761Z,9.90
2023-04-05T05:50:17.724Z,10.70
2023-04-05T05:51:18.203Z,13.10
2023-04-05T05:52:17.673Z,9.60
2023-04-05T05:53:17.678Z,13.70
2023-04-05T05:54:17.652Z,11.90
2023-04-05T05:55:17.669Z,10.40
2023-04-05T05:56:17.579Z,9.90
2023-04-05T05:57:17.576Z,9.80
2023-04-05T05:58:18.040Z,10.50
2023-04-05T05:59:18.486Z,9.80
2023-04-05T06:00:17.518Z,8.00
2023-04-05T06:01:18.498Z,8.20
2023-04-05T06:02:17.501Z,5.90
2023-04-05T06:03:18.407Z,6.10
2023-04-05T06:04:18.439Z,8.20
2023-04-05T06:05:17.481Z,9.20
2023-04-05T06:06:17.453Z,7.80
2023-04-05T06:07:18.186Z,7.60
2023-04-05T06:08:17.454Z,8.10
2023-04-05T06:09:17.389Z,9.00
2023-04-05T06:10:18.138Z,7.80
2023-04-05T06:11:17.356Z,7.90
2023-04-05T06:12:17.394Z,7.80
2023-04-05T06:13:17.364Z,6.30
2023-04-05T06:14:18.298Z,9.20
2023-04-05T06:15:18.209Z,8.10
2023-04-05T06:16:18.228Z,7.40
2023-04-05T06:17:18.232Z,9.10
2023-04-05T06:18:17.264Z,9.10
2023-04-05T06:19:17.243Z,9.40
2023-04-05T06:20:18.726Z,8.00
2023-04-05T06:21:20.253Z,7.80
2023-04-05T06:22:20.250Z,6.80
2023-04-05T06:23:18.590Z,7.50
2023-04-05T06:24:21.204Z,10.10
2023-04-05T06:25:20.360Z,8.20
2023-04-05T06:26:21.008Z,7.40
2023-04-05T06:27:21.372Z,9.20
2023-04-05T06:28:20.510Z,8.70
2023-04-05T06:29:21.810Z,8.90
2023-04-05T06:30:25.110Z,8.70
2023-04-05T06:31:22.504Z,6.30
2023-04-05T06:32:21.156Z,7.10
2023-04-05T06:33:27.060Z,6.70
2023-04-05T06:34:45.414Z,7.20
2023-04-05T06:35:23.606Z,7.80
2023-04-05T06:36:21.948Z,6.70
2023-04-05T06:37:21.928Z,7.40
2023-04-05T06:38:31.037Z,8.30
2023-04-05T06:39:20.998Z,7.90
2023-04-05T06:40:18.577Z,5.90
2023-04-05T06:41:27.188Z,6.80
2023-04-05T06:42:18.670Z,7.70
2023-04-05T06:43:24.030Z,7.40
2023-04-05T06:44:19.746Z,6.40
2023-04-05T06:45:19.445Z,7.80
2023-04-05T06:46:23.202Z,7.00
2023-04-05T06:47:23.476Z,7.40
2023-04-05T06:48:18.415Z,7.50
2023-04-05T06:49:24.095Z,6.60
2023-04-05T06:50:20.026Z,8.40
2023-04-05T06:52:32.796Z,8.10
2023-04-05T06:53:35.000Z,7.90
2023-04-05T06:54:33.647Z,6.20
2023-04-05T06:55:32.524Z,7.00
2023-04-05T06:56:33.469Z,6.80
2023-04-05T06:57:34.783Z,5.50
2023-04-05T06:58:37.080Z,5.00
2023-04-05T06:59:31.125Z,7.40
2023-04-05T07:00:36.959Z,6.60
2023-04-05T07:01:32.721Z,7.60
2023-04-05T07:02:32.278Z,4.70
2023-04-05T07:03:30.598Z,5.90
2023-04-05T07:04:32.540Z,8.40
2023-04-05T07:05:37.308Z,6.00
2023-04-05T07:06:34.788Z,5.20
2023-04-05T07:07:30.547Z,7.00
2023-04-05T07:08:31.334Z,7.00
2023-04-05T07:09:34.274Z,4.20
2023-04-05T07:10:31.730Z,6.30
2023-04-05T07:11:34.633Z,4.90
2023-04-05T07:12:32.056Z,8.00
2023-04-05T07:13:35.070Z,7.20
2023-04-05T07:14:32.358Z,8.00
2023-04-05T07:15:30.351Z,6.70
2023-04-05T07:16:30.484Z,5.50
2023-04-05T07:17:31.404Z,5.60
2023-04-05T07:18:31.618Z,5.40
2023-04-05T07:19:30.991Z,5.70
2023-04-05T07:20:31.041Z,6.00
2023-04-05T07:21:30.629Z,5.20
2023-04-05T07:22:32.753Z,6.20
2023-04-05T07:23:31.061Z,5.90
2023-04-05T07:24:30.599Z,6.50
2023-04-05T07:25:30.326Z,6.90
2023-04-05T07:26:30.515Z,4.30
2023-04-05T07:27:31.337Z,4.00
2023-04-05T07:28:30.904Z,6.60
2023-04-05T07:29:30.562Z,9.00
2023-04-05T07:30:30.204Z,5.20
2023-04-05T07:31:30.993Z,6.60
2023-04-05T07:32:30.664Z,7.50
2023-04-05T07:33:30.127Z,4.80
2023-04-05T07:34:30.229Z,4.40
2023-04-05T07:35:29.867Z,7.00
2023-04-05T07:36:30.028Z,6.60
2023-04-05T07:37:30.215Z,4.70
2023-04-05T07:38:30.157Z,3.80
2023-04-05T07:39:31.445Z,4.90
2023-04-05T07:40:30.458Z,4.10
2023-04-05T07:41:29.955Z,4.10
2023-04-05T07:42:29.734Z,7.80
2023-04-05T07:43:29.805Z,5.60
2023-04-05T07:44:29.792Z,5.00
2023-04-05T07:45:29.675Z,5.90
2023-04-05T07:46:29.797Z,4.50
2023-04-05T07:47:29.652Z,4.40
2023-04-05T07:48:29.636Z,4.50
2023-04-05T07:49:29.635Z,4.50
2023-04-05T07:50:30.298Z,4.80
2023-04-05T07:51:29.600Z,4.90
2023-04-05T07:52:29.558Z,4.70
2023-04-05T07:53:29.515Z,6.50
2023-04-05T07:54:29.599Z,5.30
2023-04-05T07:55:30.324Z,5.90
2023-04-05T07:56:30.273Z,4.70
2023-04-05T07:57:29.456Z,4.00
2023-04-05T07:58:29.466Z,3.50
2023-04-05T07:59:29.461Z,7.60
2023-04-05T08:00:29.456Z,4.00
2023-04-05T08:01:29.470Z,7.30
2023-04-05T08:02:30.303Z,2.80
2023-04-05T08:03:29.464Z,3.40
2023-04-05T08:04:29.404Z,3.60
2023-04-05T08:05:29.534Z,3.60
2023-04-05T08:06:29.522Z,3.40
2023-04-05T08:07:29.433Z,2.80
2023-04-05T08:08:29.448Z,3.70
2023-04-05T08:09:30.087Z,3.20
2023-04-05T08:10:29.449Z,7.30
2023-04-05T08:11:29.391Z,3.80
2023-04-05T08:12:29.270Z,4.60
2023-04-05T08:13:29.337Z,3.50
2023-04-05T08:14:29.457Z,4.60
2023-04-05T08:15:29.373Z,2.90
2023-04-05T08:16:29.369Z,2.10
2023-04-05T08:17:29.405Z,1.90
2023-04-05T08:18:29.359Z,2.70
2023-04-05T08:19:29.475Z,1.80
2023-04-05T08:20:29.458Z,2.80
2023-04-05T08:21:29.250Z,3.80
2023-04-05T08:22:29.181Z,1.90
2023-04-05T08:23:29.388Z,2.00
2023-04-05T08:24:29.246Z,3.30
2023-04-05T08:25:30.653Z,3.30
2023-04-05T08:26:30.689Z,4.10
2023-04-05T08:27:30.406Z,3.70
2023-04-05T08:28:29.308Z,2.90
2023-04-05T08:29:29.076Z,2.60
2023-04-05T08:30:29.023Z,2.30
2023-04-05T08:31:29.165Z,2.70
2023-04-05T08:32:29.119Z,3.30
2023-04-05T08:33:29.072Z,3.10
2023-04-05T08:34:29.041Z,2.70
2023-04-05T08:35:29.002Z,2.60
2023-04-05T08:36:29.358Z,3.20
2023-04-05T08:37:28.972Z,2.50
2023-04-05T08:38:28.931Z,2.90
2023-04-05T08:39:28.995Z,4.00
2023-04-05T08:40:29.001Z,1.90
2023-04-05T08:41:29.036Z,2.20
2023-04-05T08:42:29.160Z,3.20
2023-04-05T08:43:29.032Z,2.00
2023-04-05T08:44:28.804Z,2.40
2023-04-05T08:45:28.937Z,2.20
2023-04-05T08:46:28.988Z,1.90
2023-04-05T08:47:29.150Z,3.80
2023-04-05T08:48:28.825Z,3.30
2023-04-05T08:49:28.745Z,2.50
2023-04-05T08:50:28.776Z,5.40
2023-04-05T08:51:28.732Z,2.70
2023-04-05T08:52:28.815Z,3.50
2023-04-05T08:53:28.683Z,2.30
2023-04-05T08:54:28.662Z,2.50
2023-04-05T08:55:28.754Z,2.20
2023-04-05T08:56:28.796Z,2.40
2023-04-05T08:57:28.667Z,3.50
2023-04-05T08:58:28.688Z,4.80
2023-04-05T08:59:28.666Z,4.30
2023-04-05T09:00:28.669Z,2.60
2023-04-05T09:01:28.707Z,3.30
2023-04-05T09:02:28.644Z,3.10
2023-04-05T09:03:28.797Z,3.40
2023-04-05T09:04:28.888Z,3.70
2023-04-05T09:05:28.596Z,4.40
2023-04-05T09:06:28.701Z,4.80
2023-04-05T09:07:28.474Z,4.10
2023-04-05T09:08:28.515Z,3.00
2023-04-05T09:09:28.670Z,5.50
2023-04-05T09:10:28.614Z,3.80
2023-04-05T09:11:28.618Z,4.20
2023-04-05T09:12:28.463Z,4.60
2023-04-05T09:13:28.453Z,4.90
2023-04-05T09:14:28.401Z,2.60
2023-04-05T09:15:28.398Z,3.40
2023-04-05T09:16:28.519Z,4.40
2023-04-05T09:17:28.407Z,3.90
2023-04-05T09:18:28.825Z,4.40
2023-04-05T09:19:28.344Z,3.20
2023-04-05T09:20:28.315Z,4.70
2023-04-05T09:21:28.411Z,3.70
2023-04-05T09:22:28.411Z,4.00
2023-04-05T09:23:28.319Z,3.70
2023-04-05T09:24:28.291Z,3.20
2023-04-05T09:25:28.281Z,3.70
2023-04-05T09:26:29.042Z,4.70
2023-04-05T09:27:28.294Z,4.60
2023-04-05T09:28:28.236Z,5.80
2023-04-05T09:29:28.665Z,3.40
2023-04-05T09:30:28.762Z,3.90
2023-04-05T09:31:28.229Z,3.90
2023-04-05T09:32:28.289Z,4.50
2023-04-05T09:33:28.201Z,4.00
2023-04-05T09:34:28.172Z,4.90
2023-04-05T09:35:28.174Z,5.10
2023-04-05T09:36:28.399Z,3.50
2023-04-05T09:37:28.274Z,4.30
2023-04-05T09:38:28.357Z,5.00
2023-04-05T09:39:28.129Z,4.00
2023-04-05T09:40:28.196Z,3.50
2023-04-05T09:41:28.671Z,3.70
2023-04-05T09:42:28.145Z,2.40
2023-04-05T09:43:27.969Z,3.60
2023-04-05T09:44:28.085Z,4.30
2023-04-05T09:45:27.939Z,3.70
2023-04-05T09:46:28.057Z,6.80
2023-04-05T09:47:28.340Z,3.60
2023-04-05T09:48:28.027Z,3.40
2023-04-05T09:49:28.005Z,3.20
2023-04-05T09:50:28.090Z,3.70
2023-04-05T09:51:27.963Z,4.80
2023-04-05T09:52:28.046Z,6.30
2023-04-05T09:53:27.905Z,3.10
2023-04-05T09:54:27.936Z,4.50
2023-04-05T09:55:27.933Z,5.40
2023-04-05T09:56:28.065Z,5.30
2023-04-05T09:57:27.923Z,3.80
2023-04-05T09:58:27.853Z,4.20
2023-04-05T09:59:28.231Z,3.00
2023-04-05T10:00:28.023Z,3.60
2023-04-05T10:01:27.919Z,3.10
2023-04-05T10:02:27.867Z,3.60
2023-04-05T10:03:27.961Z,3.30
2023-04-05T10:04:27.849Z,3.70
2023-04-05T10:05:27.845Z,3.80
2023-04-05T10:06:27.885Z,3.60
2023-04-05T10:07:27.815Z,3.70
2023-04-05T10:08:27.775Z,2.80
2023-04-05T10:09:27.708Z,5.50
2023-04-05T10:10:27.590Z,3.40
2023-04-05T10:11:27.671Z,3.40
2023-04-05T10:12:27.961Z,4.20
2023-04-05T10:13:27.651Z,6.70
2023-04-05T10:14:27.695Z,4.20
2023-04-05T10:15:27.591Z,5.50
2023-04-05T10:16:27.572Z,4.20
2023-04-05T10:17:27.658Z,4.70
2023-04-05T10:18:27.569Z,3.80
2023-04-05T10:19:28.193Z,4.10
2023-04-05T10:20:27.597Z,5.90
2023-04-05T10:21:27.464Z,7.00
2023-04-05T10:22:27.494Z,4.90
2023-04-05T10:23:27.511Z,5.10
2023-04-05T10:24:27.460Z,5.80
2023-04-05T10:25:27.421Z,3.80
2023-04-05T10:26:27.834Z,4.10
2023-04-05T10:27:27.436Z,3.20
2023-04-05T10:28:28.066Z,3.80
2023-04-05T10:29:27.460Z,4.60
2023-04-05T10:30:27.350Z,6.20
2023-04-05T10:31:37.215Z,5.50
2023-04-05T10:32:28.445Z,5.20
2023-04-05T10:33:27.531Z,5.70
2023-04-05T10:34:27.351Z,4.40
2023-04-05T10:35:27.296Z,5.30
2023-04-05T10:36:27.304Z,7.60
2023-04-05T10:37:27.347Z,6.10
2023-04-05T10:38:27.259Z,6.00
2023-04-05T10:39:27.268Z,5.30
2023-04-05T10:40:27.491Z,5.50
2023-04-05T10:41:27.349Z,5.20
2023-04-05T10:42:27.187Z,7.00
2023-04-05T10:43:27.423Z,5.60
2023-04-05T10:44:27.875Z,6.50
2023-04-05T10:45:27.197Z,7.10
2023-04-05T10:46:27.272Z,9.50
2023-04-05T10:47:27.150Z,6.70
2023-04-05T10:48:27.101Z,8.10
2023-04-05T10:49:27.105Z,7.70
2023-04-05T10:50:27.068Z,5.40
2023-04-05T10:51:28.033Z,5.60
2023-04-05T10:52:27.932Z,4.20
2023-04-05T10:53:27.031Z,4.70
2023-04-05T10:54:27.007Z,6.70
2023-04-05T10:55:27.008Z,5.30
2023-04-05T10:56:26.936Z,6.00
2023-04-05T10:57:26.960Z,6.30
2023-04-05T10:58:27.032Z,8.00
2023-04-05T10:59:27.005Z,5.50
2023-04-05T11:00:26.946Z,6.00
2023-04-05T11:01:26.988Z,5.90
2023-04-05T11:02:27.078Z,8.60
2023-04-05T11:03:27.046Z,6.00
2023-04-05T11:04:26.933Z,6.40
2023-04-05T11:05:26.935Z,5.20
2023-04-05T11:06:27.040Z,6.10
2023-04-05T11:07:27.778Z,6.70
2023-04-05T11:08:26.844Z,6.10
2023-04-05T11:09:26.969Z,7.40
2023-04-05T11:10:27.173Z,6.60
2023-04-05T11:11:26.745Z,4.90
2023-04-05T11:12:26.825Z,5.20
2023-04-05T11:13:26.811Z,4.30
2023-04-05T11:14:26.883Z,6.00
2023-04-05T11:15:26.822Z,9.90
2023-04-05T11:16:26.724Z,6.50
2023-04-05T11:17:26.707Z,5.20
2023-04-05T11:18:26.760Z,4.40
2023-04-05T11:19:26.746Z,8.70
2023-04-05T11:20:26.789Z,7.20
2023-04-05T11:21:26.737Z,6.10
2023-04-05T11:22:26.753Z,4.60
2023-04-05T11:23:26.744Z,5.50
2023-04-05T11:24:26.579Z,7.30
2023-04-05T11:25:26.841Z,6.20
2023-04-05T11:26:26.587Z,5.40
2023-04-05T11:27:26.600Z,7.70
2023-04-05T11:28:26.733Z,5.90
2023-04-05T11:29:26.563Z,7.80
2023-04-05T11:30:26.531Z,5.10
2023-04-05T11:31:27.060Z,4.70
2023-04-05T11:32:26.876Z,5.00
2023-04-05T11:33:26.488Z,5.90
2023-04-05T11:34:26.863Z,7.10
2023-04-05T11:35:26.885Z,10.30
2023-04-05T11:36:26.481Z,5.40
2023-04-05T11:37:26.470Z,6.60
2023-04-05T11:38:26.540Z,6.00
2023-04-05T11:39:26.752Z,4.70
2023-04-05T11:40:26.433Z,6.70
2023-04-05T11:41:26.400Z,8.30
2023-04-05T11:42:26.697Z,4.90
2023-04-05T11:43:26.378Z,10.30
2023-04-05T11:44:26.458Z,7.10
2023-04-05T11:45:26.292Z,5.80
2023-04-05T11:46:26.367Z,4.70
2023-04-05T11:47:26.614Z,5.00
2023-04-05T11:48:26.755Z,6.70
2023-04-05T11:49:26.275Z,6.50
2023-04-05T11:50:26.296Z,6.30
2023-04-05T11:51:26.601Z,4.60
2023-04-05T11:52:26.373Z,5.30
2023-04-05T11:53:26.339Z,5.10
2023-04-05T11:54:26.217Z,5.20
2023-04-05T11:55:26.180Z,5.00
2023-04-05T11:56:26.195Z,6.80
2023-04-05T11:57:26.149Z,4.80
2023-04-05T11:58:26.142Z,6.10
2023-04-05T11:59:26.190Z,5.70
2023-04-05T12:00:26.218Z,5.90
2023-04-05T12:01:26.138Z,5.10
2023-04-05T12:02:26.494Z,5.60
2023-04-05T12:03:26.197Z,7.20
2023-04-05T12:04:26.133Z,5.90
2023-04-05T12:05:26.193Z,4.90
2023-04-05T12:06:26.100Z,4.40
2023-04-05T12:07:25.968Z,6.00
2023-04-05T12:08:26.081Z,6.30
2023-04-05T12:09:25.996Z,12.90
2023-04-05T12:10:25.987Z,3.30
2023-04-05T12:11:26.087Z,4.30
2023-04-05T12:12:26.031Z,5.70
2023-04-05T12:13:25.894Z,5.50
2023-04-05T12:14:25.933Z,5.90
2023-04-05T12:15:26.615Z,5.80
2023-04-05T12:16:26.810Z,6.10
2023-04-05T12:17:25.900Z,5.50
2023-04-05T12:18:26.194Z,4.40
2023-04-05T12:19:26.145Z,6.50
2023-04-05T12:20:26.250Z,3.70
2023-04-05T12:21:25.880Z,4.10
2023-04-05T12:22:25.837Z,4.10
2023-04-05T12:23:26.247Z,4.50
2023-04-05T12:24:25.804Z,4.80
2023-04-05T12:25:25.837Z,5.10
2023-04-05T12:26:25.846Z,6.20
2023-04-05T12:27:25.828Z,3.90
2023-04-05T12:28:25.800Z,6.00
2023-04-05T12:29:25.769Z,4.30
2023-04-05T12:30:25.849Z,4.20
2023-04-05T12:31:25.727Z,3.90
2023-04-05T12:32:25.679Z,5.80
2023-04-05T12:33:25.712Z,4.80
2023-04-05T12:34:25.726Z,4.50
2023-04-05T12:35:25.665Z,6.20
2023-04-05T12:36:25.665Z,4.20
2023-04-05T12:37:26.474Z,5.40
2023-04-05T12:38:25.711Z,3.90
2023-04-05T12:39:25.606Z,4.50
2023-04-05T12:40:25.647Z,4.60
2023-04-05T12:41:25.724Z,3.20
2023-04-05T12:42:25.641Z,5.30
2023-04-05T12:43:25.690Z,3.90
2023-04-05T12:44:25.647Z,4.70
2023-04-05T12:45:25.608Z,4.30
2023-04-05T12:46:25.578Z,7.10
2023-04-05T12:47:25.466Z,3.40
2023-04-05T12:48:25.630Z,4.20
2023-04-05T12:49:25.788Z,5.20
2023-04-05T12:50:25.779Z,3.60
2023-04-05T12:51:26.254Z,4.00
2023-04-05T12:52:25.348Z,4.00
2023-04-05T12:53:25.515Z,4.40
2023-04-05T12:54:25.378Z,4.80
2023-04-05T12:55:25.497Z,5.10
2023-04-05T12:56:25.358Z,4.10
2023-04-05T12:57:25.421Z,4.20
2023-04-05T12:58:26.060Z,5.40
2023-04-05T12:59:25.337Z,3.50
2023-04-05T13:00:25.471Z,4.20
2023-04-05T13:01:25.251Z,4.50
2023-04-05T13:02:25.624Z,6.30
2023-04-05T13:03:25.407Z,3.80
2023-04-05T13:04:26.456Z,5.30
2023-04-05T13:05:25.738Z,6.20
2023-04-05T13:06:25.180Z,5.20
2023-04-05T13:07:25.234Z,6.00
2023-04-05T13:08:25.176Z,3.20
2023-04-05T13:09:25.193Z,6.00
2023-04-05T13:10:25.175Z,4.40
2023-04-05T13:11:25.239Z,4.30
2023-04-05T13:12:25.821Z,5.10
2023-04-05T13:13:25.061Z,4.20
2023-04-05T13:14:25.153Z,3.40
2023-04-05T13:15:25.134Z,3.30